sensor_id;sensor_type;location;lat;lon;timestamp;P1;durP1;ratioP1;P2;durP2;ratioP2
86047;SDS011;76643;42.822;23.352;2024-02-21T00:01:21;11.10;;;7.78;;
86047;SDS011;76643;42.822;23.352;2024-02-21T00:03:47;13.00;;;8.52;;
86047;SDS011;76643;42.822;23.352;2024-02-21T00:06:12;14.93;;;8.93;;
86047;SDS011;76643;42.822;23.352;2024-02-21T00:08:38;13.02;;;8.00;;
86047;SDS011;76643;42.822;23.352;2024-02-21T00:11:03;13.73;;;8.18;;
86047;SDS011;76643;42.822;23.352;2024-02-21T00:13:28;15.18;;;9.63;;
86047;SDS011;76643;42.822;23.352;2024-02-21T00:15:54;13.63;;;9.70;;
86047;SDS011;76643;42.822;23.352;2024-02-21T00:18:20;15.85;;;10.73;;
86047;SDS011;76643;42.822;23.352;2024-02-21T00:20:45;15.55;;;11.85;;
86047;SDS011;76643;42.822;23.352;2024-02-21T00:23:10;16.60;;;13.70;;
86047;SDS011;76643;42.822;23.352;2024-02-21T00:25:36;16.10;;;12.45;;
86047;SDS011;76643;42.822;23.352;2024-02-21T00:28:01;15.63;;;11.32;;
86047;SDS011;76643;42.822;23.352;2024-02-21T00:30:27;18.63;;;14.45;;
86047;SDS011;76643;42.822;23.352;2024-02-21T00:32:52;19.73;;;13.73;;
86047;SDS011;76643;42.822;23.352;2024-02-21T00:35:18;17.50;;;13.60;;
86047;SDS011;76643;42.822;23.352;2024-02-21T00:37:43;23.27;;;14.15;;
86047;SDS011;76643;42.822;23.352;2024-02-21T00:40:08;21.75;;;12.90;;
86047;SDS011;76643;42.822;23.352;2024-02-21T00:42:34;22.95;;;12.70;;
86047;SDS011;76643;42.822;23.352;2024-02-21T00:44:59;26.13;;;14.32;;
86047;SDS011;76643;42.822;23.352;2024-02-21T00:47:25;23.25;;;14.20;;
86047;SDS011;76643;42.822;23.352;2024-02-21T00:49:50;26.35;;;16.02;;
86047;SDS011;76643;42.822;23.352;2024-02-21T00:52:15;23.25;;;13.80;;
86047;SDS011;76643;42.822;23.352;2024-02-21T00:54:41;19.15;;;12.85;;
86047;SDS011;76643;42.822;23.352;2024-02-21T00:57:06;28.80;;;17.92;;
86047;SDS011;76643;42.822;23.352;2024-02-21T00:59:31;25.85;;;15.63;;
86047;SDS011;76643;42.822;23.352;2024-02-21T01:01:57;20.98;;;13.40;;
86047;SDS011;76643;42.822;23.352;2024-02-21T01:04:22;25.70;;;15.48;;
86047;SDS011;76643;42.822;23.352;2024-02-21T01:06:49;19.02;;;10.95;;
86047;SDS011;76643;42.822;23.352;2024-02-21T01:09:15;16.52;;;10.35;;
86047;SDS011;76643;42.822;23.352;2024-02-21T01:11:40;10.18;;;7.22;;
86047;SDS011;76643;42.822;23.352;2024-02-21T01:14:05;11.93;;;7.50;;
86047;SDS011;76643;42.822;23.352;2024-02-21T01:16:31;12.05;;;7.72;;
86047;SDS011;76643;42.822;23.352;2024-02-21T01:18:56;15.27;;;8.15;;
86047;SDS011;76643;42.822;23.352;2024-02-21T01:21:22;13.20;;;7.82;;
86047;SDS011;76643;42.822;23.352;2024-02-21T01:23:48;14.60;;;8.85;;
86047;SDS011;76643;42.822;23.352;2024-02-21T01:26:13;13.40;;;8.32;;
86047;SDS011;76643;42.822;23.352;2024-02-21T01:28:40;13.55;;;8.15;;
86047;SDS011;76643;42.822;23.352;2024-02-21T01:31:06;11.70;;;7.95;;
86047;SDS011;76643;42.822;23.352;2024-02-21T01:33:32;13.73;;;8.43;;
86047;SDS011;76643;42.822;23.352;2024-02-21T01:36:02;12.35;;;6.90;;
86047;SDS011;76643;42.822;23.352;2024-02-21T01:38:28;12.93;;;8.00;;
86047;SDS011;76643;42.822;23.352;2024-02-21T01:40:54;14.25;;;8.95;;
86047;SDS011;76643;42.822;23.352;2024-02-21T01:43:20;12.48;;;8.02;;
86047;SDS011;76643;42.822;23.352;2024-02-21T01:45:49;10.10;;;7.00;;
86047;SDS011;76643;42.822;23.352;2024-02-21T01:48:16;14.10;;;7.57;;
86047;SDS011;76643;42.822;23.352;2024-02-21T01:50:44;14.57;;;7.78;;
86047;SDS011;76643;42.822;23.352;2024-02-21T01:53:10;11.55;;;7.57;;
86047;SDS011;76643;42.822;23.352;2024-02-21T01:55:42;14.38;;;8.88;;
86047;SDS011;76643;42.822;23.352;2024-02-21T01:58:09;14.75;;;9.85;;
86047;SDS011;76643;42.822;23.352;2024-02-21T02:00:34;14.50;;;9.25;;
86047;SDS011;76643;42.822;23.352;2024-02-21T02:03:02;17.08;;;10.38;;
86047;SDS011;76643;42.822;23.352;2024-02-21T02:05:28;15.48;;;10.23;;
86047;SDS011;76643;42.822;23.352;2024-02-21T02:07:54;18.75;;;10.85;;
86047;SDS011;76643;42.822;23.352;2024-02-21T02:10:19;18.00;;;11.27;;
86047;SDS011;76643;42.822;23.352;2024-02-21T02:12:44;21.95;;;12.43;;
86047;SDS011;76643;42.822;23.352;2024-02-21T02:15:10;19.95;;;11.50;;
86047;SDS011;76643;42.822;23.352;2024-02-21T02:17:35;24.55;;;14.55;;
86047;SDS011;76643;42.822;23.352;2024-02-21T02:20:01;24.47;;;14.17;;
86047;SDS011;76643;42.822;23.352;2024-02-21T02:22:29;22.38;;;13.68;;
86047;SDS011;76643;42.822;23.352;2024-02-21T02:25:00;26.08;;;13.65;;
86047;SDS011;76643;42.822;23.352;2024-02-21T02:27:26;24.73;;;14.45;;
86047;SDS011;76643;42.822;23.352;2024-02-21T02:29:52;25.35;;;15.45;;
86047;SDS011;76643;42.822;23.352;2024-02-21T02:32:17;24.73;;;14.05;;
86047;SDS011;76643;42.822;23.352;2024-02-21T02:34:43;19.42;;;13.32;;
86047;SDS011;76643;42.822;23.352;2024-02-21T02:37:08;26.23;;;15.00;;
86047;SDS011;76643;42.822;23.352;2024-02-21T02:39:34;22.88;;;13.45;;
86047;SDS011;76643;42.822;23.352;2024-02-21T02:41:59;24.88;;;13.68;;
86047;SDS011;76643;42.822;23.352;2024-02-21T02:44:24;28.45;;;16.23;;
86047;SDS011;76643;42.822;23.352;2024-02-21T02:46:50;23.27;;;15.38;;
86047;SDS011;76643;42.822;23.352;2024-02-21T02:49:15;24.60;;;14.15;;
86047;SDS011;76643;42.822;23.352;2024-02-21T02:51:41;25.40;;;15.15;;
86047;SDS011;76643;42.822;23.352;2024-02-21T02:54:09;23.30;;;12.50;;
86047;SDS011;76643;42.822;23.352;2024-02-21T02:56:36;21.95;;;13.00;;
86047;SDS011;76643;42.822;23.352;2024-02-21T02:59:01;22.30;;;13.40;;
86047;SDS011;76643;42.822;23.352;2024-02-21T03:01:26;21.88;;;13.32;;
86047;SDS011;76643;42.822;23.352;2024-02-21T03:03:52;19.92;;;13.70;;
86047;SDS011;76643;42.822;23.352;2024-02-21T03:06:17;21.33;;;13.18;;
86047;SDS011;76643;42.822;23.352;2024-02-21T03:08:43;25.05;;;13.80;;
86047;SDS011;76643;42.822;23.352;2024-02-21T03:11:08;22.52;;;12.77;;
86047;SDS011;76643;42.822;23.352;2024-02-21T03:13:34;25.65;;;14.15;;
86047;SDS011;76643;42.822;23.352;2024-02-21T03:15:59;22.42;;;13.68;;
86047;SDS011;76643;42.822;23.352;2024-02-21T03:18:24;22.60;;;14.30;;
86047;SDS011;76643;42.822;23.352;2024-02-21T03:20:50;25.55;;;13.73;;
86047;SDS011;76643;42.822;23.352;2024-02-21T03:23:15;22.40;;;12.82;;
86047;SDS011;76643;42.822;23.352;2024-02-21T03:25:41;23.73;;;12.90;;
86047;SDS011;76643;42.822;23.352;2024-02-21T03:28:06;23.88;;;15.18;;
86047;SDS011;76643;42.822;23.352;2024-02-21T03:30:32;20.70;;;12.30;;
86047;SDS011;76643;42.822;23.352;2024-02-21T03:32:58;21.05;;;13.30;;
86047;SDS011;76643;42.822;23.352;2024-02-21T03:35:24;19.42;;;11.35;;
86047;SDS011;76643;42.822;23.352;2024-02-21T03:37:51;20.23;;;13.15;;
86047;SDS011;76643;42.822;23.352;2024-02-21T03:40:17;25.02;;;12.73;;
86047;SDS011;76643;42.822;23.352;2024-02-21T03:42:42;31.40;;;16.35;;
86047;SDS011;76643;42.822;23.352;2024-02-21T03:45:08;28.83;;;16.75;;
86047;SDS011;76643;42.822;23.352;2024-02-21T03:47:34;29.40;;;15.57;;
86047;SDS011;76643;42.822;23.352;2024-02-21T03:49:59;26.85;;;15.07;;
86047;SDS011;76643;42.822;23.352;2024-02-21T03:52:25;33.13;;;17.83;;
86047;SDS011;76643;42.822;23.352;2024-02-21T03:54:50;39.78;;;20.48;;
86047;SDS011;76643;42.822;23.352;2024-02-21T03:57:16;33.63;;;17.20;;
86047;SDS011;76643;42.822;23.352;2024-02-21T03:59:42;28.10;;;14.95;;
86047;SDS011;76643;42.822;23.352;2024-02-21T04:02:07;24.50;;;14.93;;
86047;SDS011;76643;42.822;23.352;2024-02-21T04:04:34;36.60;;;20.50;;
86047;SDS011;76643;42.822;23.352;2024-02-21T04:07:02;36.00;;;20.20;;
86047;SDS011;76643;42.822;23.352;2024-02-21T04:09:31;35.75;;;19.95;;
86047;SDS011;76643;42.822;23.352;2024-02-21T04:11:57;30.67;;;19.15;;
86047;SDS011;76643;42.822;23.352;2024-02-21T04:14:23;25.33;;;15.73;;
86047;SDS011;76643;42.822;23.352;2024-02-21T04:16:48;26.92;;;15.27;;
86047;SDS011;76643;42.822;23.352;2024-02-21T04:19:13;31.33;;;14.43;;
86047;SDS011;76643;42.822;23.352;2024-02-21T04:21:39;26.33;;;14.37;;
86047;SDS011;76643;42.822;23.352;2024-02-21T04:24:04;24.45;;;15.02;;
86047;SDS011;76643;42.822;23.352;2024-02-21T04:26:30;22.63;;;12.70;;
86047;SDS011;76643;42.822;23.352;2024-02-21T04:28:56;23.42;;;13.85;;
86047;SDS011;76643;42.822;23.352;2024-02-21T04:31:21;21.30;;;13.15;;
86047;SDS011;76643;42.822;23.352;2024-02-21T04:33:46;20.60;;;11.82;;
86047;SDS011;76643;42.822;23.352;2024-02-21T04:36:12;21.65;;;13.93;;
86047;SDS011;76643;42.822;23.352;2024-02-21T04:38:37;22.77;;;14.38;;
86047;SDS011;76643;42.822;23.352;2024-02-21T04:41:04;24.77;;;14.75;;
86047;SDS011;76643;42.822;23.352;2024-02-21T04:43:29;23.60;;;15.48;;
86047;SDS011;76643;42.822;23.352;2024-02-21T04:45:54;24.33;;;14.13;;
86047;SDS011;76643;42.822;23.352;2024-02-21T04:48:20;21.77;;;14.55;;
86047;SDS011;76643;42.822;23.352;2024-02-21T04:50:46;26.05;;;17.10;;
86047;SDS011;76643;42.822;23.352;2024-02-21T04:53:11;28.00;;;16.05;;
86047;SDS011;76643;42.822;23.352;2024-02-21T04:55:36;19.38;;;12.85;;
86047;SDS011;76643;42.822;23.352;2024-02-21T04:58:02;18.70;;;12.85;;
86047;SDS011;76643;42.822;23.352;2024-02-21T05:00:27;21.10;;;13.75;;
86047;SDS011;76643;42.822;23.352;2024-02-21T05:02:53;18.75;;;13.20;;
86047;SDS011;76643;42.822;23.352;2024-02-21T05:05:18;18.10;;;11.98;;
86047;SDS011;76643;42.822;23.352;2024-02-21T05:07:44;24.50;;;12.63;;
86047;SDS011;76643;42.822;23.352;2024-02-21T05:10:09;21.50;;;14.70;;
86047;SDS011;76643;42.822;23.352;2024-02-21T05:12:35;21.67;;;13.93;;
86047;SDS011;76643;42.822;23.352;2024-02-21T05:15:00;26.38;;;16.67;;
86047;SDS011;76643;42.822;23.352;2024-02-21T05:17:26;28.23;;;15.95;;
86047;SDS011;76643;42.822;23.352;2024-02-21T05:19:51;26.92;;;16.42;;
86047;SDS011;76643;42.822;23.352;2024-02-21T05:22:17;23.67;;;15.10;;
86047;SDS011;76643;42.822;23.352;2024-02-21T05:24:42;27.90;;;17.65;;
86047;SDS011;76643;42.822;23.352;2024-02-21T05:27:07;26.70;;;19.48;;
86047;SDS011;76643;42.822;23.352;2024-02-21T05:29:33;25.63;;;18.48;;
86047;SDS011;76643;42.822;23.352;2024-02-21T05:31:59;26.15;;;16.95;;
86047;SDS011;76643;42.822;23.352;2024-02-21T05:34:24;18.45;;;12.93;;
86047;SDS011;76643;42.822;23.352;2024-02-21T05:36:51;22.17;;;13.38;;
86047;SDS011;76643;42.822;23.352;2024-02-21T05:39:16;18.48;;;12.20;;
86047;SDS011;76643;42.822;23.352;2024-02-21T05:41:42;22.00;;;14.80;;
86047;SDS011;76643;42.822;23.352;2024-02-21T05:44:08;27.42;;;16.25;;
86047;SDS011;76643;42.822;23.352;2024-02-21T05:46:33;25.88;;;16.67;;
86047;SDS011;76643;42.822;23.352;2024-02-21T05:48:59;25.33;;;16.95;;
86047;SDS011;76643;42.822;23.352;2024-02-21T05:51:24;28.38;;;20.00;;
86047;SDS011;76643;42.822;23.352;2024-02-21T05:53:49;36.47;;;21.55;;
86047;SDS011;76643;42.822;23.352;2024-02-21T05:56:15;37.57;;;21.93;;
86047;SDS011;76643;42.822;23.352;2024-02-21T05:58:42;49.53;;;28.20;;
86047;SDS011;76643;42.822;23.352;2024-02-21T06:01:07;48.22;;;27.67;;
86047;SDS011;76643;42.822;23.352;2024-02-21T06:03:33;43.03;;;26.58;;
86047;SDS011;76643;42.822;23.352;2024-02-21T06:05:59;42.20;;;26.20;;
86047;SDS011;76643;42.822;23.352;2024-02-21T06:08:26;39.67;;;24.13;;
86047;SDS011;76643;42.822;23.352;2024-02-21T06:10:51;32.00;;;21.50;;
86047;SDS011;76643;42.822;23.352;2024-02-21T06:13:19;27.50;;;17.52;;
86047;SDS011;76643;42.822;23.352;2024-02-21T06:15:48;31.70;;;19.55;;
86047;SDS011;76643;42.822;23.352;2024-02-21T06:18:15;30.58;;;18.15;;
86047;SDS011;76643;42.822;23.352;2024-02-21T06:20:42;24.55;;;14.45;;
86047;SDS011;76643;42.822;23.352;2024-02-21T06:23:08;20.13;;;12.90;;
86047;SDS011;76643;42.822;23.352;2024-02-21T06:25:33;20.23;;;12.80;;
86047;SDS011;76643;42.822;23.352;2024-02-21T06:27:59;21.48;;;12.93;;
86047;SDS011;76643;42.822;23.352;2024-02-21T06:30:24;20.60;;;11.60;;
86047;SDS011;76643;42.822;23.352;2024-02-21T06:32:50;20.73;;;11.73;;
86047;SDS011;76643;42.822;23.352;2024-02-21T06:35:15;21.13;;;12.60;;
86047;SDS011;76643;42.822;23.352;2024-02-21T06:37:42;17.00;;;10.45;;
86047;SDS011;76643;42.822;23.352;2024-02-21T06:40:07;18.33;;;10.30;;
86047;SDS011;76643;42.822;23.352;2024-02-21T06:42:33;18.70;;;11.15;;
86047;SDS011;76643;42.822;23.352;2024-02-21T06:44:58;18.37;;;10.93;;
86047;SDS011;76643;42.822;23.352;2024-02-21T06:47:24;18.10;;;10.98;;
86047;SDS011;76643;42.822;23.352;2024-02-21T06:49:49;20.48;;;12.10;;
86047;SDS011;76643;42.822;23.352;2024-02-21T06:52:17;19.95;;;12.05;;
86047;SDS011;76643;42.822;23.352;2024-02-21T06:54:45;20.30;;;11.68;;
86047;SDS011;76643;42.822;23.352;2024-02-21T06:57:13;19.08;;;10.80;;
86047;SDS011;76643;42.822;23.352;2024-02-21T06:59:39;17.92;;;10.88;;
86047;SDS011;76643;42.822;23.352;2024-02-21T07:02:05;16.27;;;10.20;;
86047;SDS011;76643;42.822;23.352;2024-02-21T07:04:30;14.35;;;9.45;;
86047;SDS011;76643;42.822;23.352;2024-02-21T07:06:56;13.93;;;8.30;;
86047;SDS011;76643;42.822;23.352;2024-02-21T07:09:21;12.98;;;8.93;;
86047;SDS011;76643;42.822;23.352;2024-02-21T07:11:47;14.10;;;8.75;;
86047;SDS011;76643;42.822;23.352;2024-02-21T07:14:13;12.95;;;8.60;;
86047;SDS011;76643;42.822;23.352;2024-02-21T07:16:40;16.95;;;9.52;;
86047;SDS011;76643;42.822;23.352;2024-02-21T07:19:05;17.85;;;9.05;;
86047;SDS011;76643;42.822;23.352;2024-02-21T07:21:31;13.52;;;8.07;;
86047;SDS011;76643;42.822;23.352;2024-02-21T07:23:56;13.90;;;7.80;;
86047;SDS011;76643;42.822;23.352;2024-02-21T07:26:22;17.13;;;8.93;;
86047;SDS011;76643;42.822;23.352;2024-02-21T07:28:47;13.10;;;8.13;;
86047;SDS011;76643;42.822;23.352;2024-02-21T07:31:12;13.45;;;8.00;;
86047;SDS011;76643;42.822;23.352;2024-02-21T07:33:38;13.35;;;8.38;;
86047;SDS011;76643;42.822;23.352;2024-02-21T07:36:10;12.50;;;8.20;;
86047;SDS011;76643;42.822;23.352;2024-02-21T07:38:36;11.93;;;7.97;;
86047;SDS011;76643;42.822;23.352;2024-02-21T07:41:01;14.07;;;8.90;;
86047;SDS011;76643;42.822;23.352;2024-02-21T07:43:29;13.50;;;9.45;;
86047;SDS011;76643;42.822;23.352;2024-02-21T07:45:54;18.58;;;11.63;;
86047;SDS011;76643;42.822;23.352;2024-02-21T07:48:20;18.30;;;9.43;;
86047;SDS011;76643;42.822;23.352;2024-02-21T07:50:49;12.27;;;8.88;;
86047;SDS011;76643;42.822;23.352;2024-02-21T07:53:15;13.45;;;8.57;;
86047;SDS011;76643;42.822;23.352;2024-02-21T07:55:40;13.20;;;8.75;;
86047;SDS011;76643;42.822;23.352;2024-02-21T07:58:05;11.25;;;7.60;;
86047;SDS011;76643;42.822;23.352;2024-02-21T08:00:31;11.55;;;7.97;;
86047;SDS011;76643;42.822;23.352;2024-02-21T08:02:56;14.25;;;8.75;;
86047;SDS011;76643;42.822;23.352;2024-02-21T08:05:22;11.93;;;7.90;;
86047;SDS011;76643;42.822;23.352;2024-02-21T08:07:48;13.88;;;8.05;;
86047;SDS011;76643;42.822;23.352;2024-02-21T08:10:13;14.65;;;9.43;;
86047;SDS011;76643;42.822;23.352;2024-02-21T08:12:39;15.20;;;8.65;;
86047;SDS011;76643;42.822;23.352;2024-02-21T08:15:04;15.27;;;8.63;;
86047;SDS011;76643;42.822;23.352;2024-02-21T08:17:30;14.85;;;9.80;;
86047;SDS011;76643;42.822;23.352;2024-02-21T08:19:56;13.53;;;8.77;;
86047;SDS011;76643;42.822;23.352;2024-02-21T08:22:21;17.20;;;10.77;;
86047;SDS011;76643;42.822;23.352;2024-02-21T08:24:46;16.05;;;10.40;;
86047;SDS011;76643;42.822;23.352;2024-02-21T08:27:12;14.82;;;10.00;;
86047;SDS011;76643;42.822;23.352;2024-02-21T08:29:37;16.75;;;9.57;;
86047;SDS011;76643;42.822;23.352;2024-02-21T08:32:03;16.30;;;10.73;;
86047;SDS011;76643;42.822;23.352;2024-02-21T08:34:28;17.42;;;10.45;;
86047;SDS011;76643;42.822;23.352;2024-02-21T08:36:55;18.20;;;11.35;;
86047;SDS011;76643;42.822;23.352;2024-02-21T08:39:20;18.85;;;12.35;;
86047;SDS011;76643;42.822;23.352;2024-02-21T08:41:46;19.27;;;12.50;;
86047;SDS011;76643;42.822;23.352;2024-02-21T08:44:11;22.67;;;14.88;;
86047;SDS011;76643;42.822;23.352;2024-02-21T08:46:37;20.40;;;13.07;;
86047;SDS011;76643;42.822;23.352;2024-02-21T08:49:05;21.42;;;12.95;;
86047;SDS011;76643;42.822;23.352;2024-02-21T08:51:31;21.60;;;12.50;;
86047;SDS011;76643;42.822;23.352;2024-02-21T08:53:56;19.05;;;12.15;;
86047;SDS011;76643;42.822;23.352;2024-02-21T08:56:23;20.50;;;13.07;;
86047;SDS011;76643;42.822;23.352;2024-02-21T08:58:49;19.08;;;11.77;;
86047;SDS011;76643;42.822;23.352;2024-02-21T09:01:15;17.40;;;11.63;;
86047;SDS011;76643;42.822;23.352;2024-02-21T09:03:40;17.83;;;11.27;;
86047;SDS011;76643;42.822;23.352;2024-02-21T09:06:05;22.05;;;13.55;;
86047;SDS011;76643;42.822;23.352;2024-02-21T09:08:32;18.48;;;11.10;;
86047;SDS011;76643;42.822;23.352;2024-02-21T09:10:57;20.50;;;10.88;;
86047;SDS011;76643;42.822;23.352;2024-02-21T09:13:23;17.17;;;10.38;;
86047;SDS011;76643;42.822;23.352;2024-02-21T09:15:48;17.23;;;10.95;;
86047;SDS011;76643;42.822;23.352;2024-02-21T09:18:14;18.83;;;12.10;;
86047;SDS011;76643;42.822;23.352;2024-02-21T09:20:41;24.02;;;12.02;;
86047;SDS011;76643;42.822;23.352;2024-02-21T09:23:06;22.23;;;11.88;;
86047;SDS011;76643;42.822;23.352;2024-02-21T09:25:32;22.02;;;14.45;;
86047;SDS011;76643;42.822;23.352;2024-02-21T09:27:57;24.80;;;13.02;;
86047;SDS011;76643;42.822;23.352;2024-02-21T09:30:23;19.92;;;12.20;;
86047;SDS011;76643;42.822;23.352;2024-02-21T09:32:49;15.88;;;10.50;;
86047;SDS011;76643;42.822;23.352;2024-02-21T09:35:14;17.25;;;11.35;;
86047;SDS011;76643;42.822;23.352;2024-02-21T09:37:40;17.73;;;10.38;;
86047;SDS011;76643;42.822;23.352;2024-02-21T09:40:05;19.13;;;12.32;;
86047;SDS011;76643;42.822;23.352;2024-02-21T09:45:15;15.40;;;9.38;;
86047;SDS011;76643;42.822;23.352;2024-02-21T09:50:31;15.30;;;9.48;;
86047;SDS011;76643;42.822;23.352;2024-02-21T09:52:59;15.13;;;9.20;;
86047;SDS011;76643;42.822;23.352;2024-02-21T09:55:27;12.45;;;8.55;;
86047;SDS011;76643;42.822;23.352;2024-02-21T09:57:57;15.82;;;9.43;;
86047;SDS011;76643;42.822;23.352;2024-02-21T10:00:24;13.63;;;9.02;;
86047;SDS011;76643;42.822;23.352;2024-02-21T10:02:49;15.32;;;9.82;;
86047;SDS011;76643;42.822;23.352;2024-02-21T10:05:15;14.13;;;8.52;;
86047;SDS011;76643;42.822;23.352;2024-02-21T10:07:41;14.02;;;9.50;;
86047;SDS011;76643;42.822;23.352;2024-02-21T10:10:06;11.60;;;7.68;;
86047;SDS011;76643;42.822;23.352;2024-02-21T10:12:32;13.65;;;9.52;;
86047;SDS011;76643;42.822;23.352;2024-02-21T10:15:05;13.80;;;8.30;;
86047;SDS011;76643;42.822;23.352;2024-02-21T10:17:34;13.10;;;7.97;;
86047;SDS011;76643;42.822;23.352;2024-02-21T10:20:09;12.07;;;8.68;;
86047;SDS011;76643;42.822;23.352;2024-02-21T10:22:35;24.85;;;14.68;;
86047;SDS011;76643;42.822;23.352;2024-02-21T10:25:10;19.45;;;10.52;;
86047;SDS011;76643;42.822;23.352;2024-02-21T10:27:37;16.45;;;10.07;;
86047;SDS011;76643;42.822;23.352;2024-02-21T10:30:07;14.13;;;8.80;;
86047;SDS011;76643;42.822;23.352;2024-02-21T10:32:33;14.25;;;9.00;;
86047;SDS011;76643;42.822;23.352;2024-02-21T10:35:02;18.38;;;11.88;;
86047;SDS011;76643;42.822;23.352;2024-02-21T10:37:31;20.23;;;11.57;;
86047;SDS011;76643;42.822;23.352;2024-02-21T10:40:00;18.20;;;10.13;;
86047;SDS011;76643;42.822;23.352;2024-02-21T10:42:28;16.70;;;9.00;;
86047;SDS011;76643;42.822;23.352;2024-02-21T10:44:55;14.98;;;7.97;;
86047;SDS011;76643;42.822;23.352;2024-02-21T10:47:26;15.48;;;8.95;;
86047;SDS011;76643;42.822;23.352;2024-02-21T10:50:02;14.73;;;9.57;;
86047;SDS011;76643;42.822;23.352;2024-02-21T10:52:35;15.55;;;7.75;;
86047;SDS011;76643;42.822;23.352;2024-02-21T10:55:09;19.83;;;11.27;;
86047;SDS011;76643;42.822;23.352;2024-02-21T10:57:38;9.52;;;6.15;;
86047;SDS011;76643;42.822;23.352;2024-02-21T11:00:04;12.43;;;7.40;;
86047;SDS011;76643;42.822;23.352;2024-02-21T11:02:33;22.60;;;12.48;;
86047;SDS011;76643;42.822;23.352;2024-02-21T11:04:59;11.18;;;6.55;;
86047;SDS011;76643;42.822;23.352;2024-02-21T11:07:28;10.27;;;6.70;;
86047;SDS011;76643;42.822;23.352;2024-02-21T11:09:57;10.05;;;6.47;;
86047;SDS011;76643;42.822;23.352;2024-02-21T11:12:24;11.50;;;7.50;;
86047;SDS011;76643;42.822;23.352;2024-02-21T11:14:50;9.90;;;7.45;;
86047;SDS011;76643;42.822;23.352;2024-02-21T11:17:19;11.13;;;6.25;;
86047;SDS011;76643;42.822;23.352;2024-02-21T11:19:51;9.90;;;6.88;;
86047;SDS011;76643;42.822;23.352;2024-02-21T11:22:18;12.60;;;7.85;;
86047;SDS011;76643;42.822;23.352;2024-02-21T11:24:44;10.50;;;7.30;;
86047;SDS011;76643;42.822;23.352;2024-02-21T11:29:43;11.68;;;7.32;;
86047;SDS011;76643;42.822;23.352;2024-02-21T11:32:09;11.88;;;7.45;;
86047;SDS011;76643;42.822;23.352;2024-02-21T11:34:36;9.98;;;6.53;;
86047;SDS011;76643;42.822;23.352;2024-02-21T11:37:02;8.48;;;6.30;;
86047;SDS011;76643;42.822;23.352;2024-02-21T11:39:38;8.63;;;5.82;;
86047;SDS011;76643;42.822;23.352;2024-02-21T11:42:06;7.95;;;5.45;;
86047;SDS011;76643;42.822;23.352;2024-02-21T11:44:35;11.23;;;6.88;;
86047;SDS011;76643;42.822;23.352;2024-02-21T11:47:05;8.90;;;6.22;;
86047;SDS011;76643;42.822;23.352;2024-02-21T11:49:36;8.52;;;5.68;;
86047;SDS011;76643;42.822;23.352;2024-02-21T11:52:04;10.90;;;7.72;;
86047;SDS011;76643;42.822;23.352;2024-02-21T11:54:30;11.23;;;6.50;;
86047;SDS011;76643;42.822;23.352;2024-02-21T11:56:56;12.18;;;8.05;;
86047;SDS011;76643;42.822;23.352;2024-02-21T11:59:25;11.65;;;8.45;;
86047;SDS011;76643;42.822;23.352;2024-02-21T12:01:50;13.65;;;7.78;;
86047;SDS011;76643;42.822;23.352;2024-02-21T12:04:19;9.45;;;7.03;;
86047;SDS011;76643;42.822;23.352;2024-02-21T12:06:45;10.75;;;6.55;;
86047;SDS011;76643;42.822;23.352;2024-02-21T12:09:14;9.80;;;6.57;;
86047;SDS011;76643;42.822;23.352;2024-02-21T12:11:41;10.30;;;6.35;;
86047;SDS011;76643;42.822;23.352;2024-02-21T12:14:06;10.85;;;7.10;;
86047;SDS011;76643;42.822;23.352;2024-02-21T12:16:32;11.45;;;5.72;;
86047;SDS011;76643;42.822;23.352;2024-02-21T12:19:00;8.90;;;5.22;;
86047;SDS011;76643;42.822;23.352;2024-02-21T12:21:26;7.78;;;4.13;;
86047;SDS011;76643;42.822;23.352;2024-02-21T12:23:55;8.07;;;5.35;;
86047;SDS011;76643;42.822;23.352;2024-02-21T12:26:20;8.60;;;5.55;;
86047;SDS011;76643;42.822;23.352;2024-02-21T12:28:46;9.07;;;5.95;;
86047;SDS011;76643;42.822;23.352;2024-02-21T12:31:12;14.48;;;8.82;;
86047;SDS011;76643;42.822;23.352;2024-02-21T12:33:38;11.70;;;7.50;;
86047;SDS011;76643;42.822;23.352;2024-02-21T12:36:03;14.45;;;7.93;;
86047;SDS011;76643;42.822;23.352;2024-02-21T12:38:29;19.92;;;11.02;;
86047;SDS011;76643;42.822;23.352;2024-02-21T12:40:55;20.38;;;12.07;;
86047;SDS011;76643;42.822;23.352;2024-02-21T12:43:22;19.83;;;12.15;;
86047;SDS011;76643;42.822;23.352;2024-02-21T12:45:47;62.67;;;31.17;;
86047;SDS011;76643;42.822;23.352;2024-02-21T12:48:13;45.92;;;25.65;;
86047;SDS011;76643;42.822;23.352;2024-02-21T12:50:39;16.20;;;11.75;;
86047;SDS011;76643;42.822;23.352;2024-02-21T12:53:05;14.95;;;8.82;;
86047;SDS011;76643;42.822;23.352;2024-02-21T12:55:31;13.23;;;7.82;;
86047;SDS011;76643;42.822;23.352;2024-02-21T12:57:56;12.98;;;7.90;;
86047;SDS011;76643;42.822;23.352;2024-02-21T13:00:28;13.25;;;8.18;;
86047;SDS011;76643;42.822;23.352;2024-02-21T13:02:53;14.15;;;7.75;;
86047;SDS011;76643;42.822;23.352;2024-02-21T13:05:18;12.75;;;7.85;;
86047;SDS011;76643;42.822;23.352;2024-02-21T13:07:44;12.57;;;8.40;;
86047;SDS011;76643;42.822;23.352;2024-02-21T13:10:09;12.52;;;7.20;;
86047;SDS011;76643;42.822;23.352;2024-02-21T13:12:35;16.25;;;10.27;;
86047;SDS011;76643;42.822;23.352;2024-02-21T13:15:00;15.20;;;9.15;;
86047;SDS011;76643;42.822;23.352;2024-02-21T13:17:26;13.65;;;8.45;;
86047;SDS011;76643;42.822;23.352;2024-02-21T13:19:55;12.32;;;7.78;;
86047;SDS011;76643;42.822;23.352;2024-02-21T13:22:20;12.05;;;8.30;;
86047;SDS011;76643;42.822;23.352;2024-02-21T13:24:47;18.98;;;10.25;;
86047;SDS011;76643;42.822;23.352;2024-02-21T13:27:12;12.43;;;7.68;;
86047;SDS011;76643;42.822;23.352;2024-02-21T13:29:38;15.55;;;8.95;;
86047;SDS011;76643;42.822;23.352;2024-02-21T13:32:03;19.73;;;10.60;;
86047;SDS011;76643;42.822;23.352;2024-02-21T13:34:30;14.38;;;8.25;;
86047;SDS011;76643;42.822;23.352;2024-02-21T13:36:55;12.65;;;7.78;;
86047;SDS011;76643;42.822;23.352;2024-02-21T13:39:20;13.03;;;8.20;;
86047;SDS011;76643;42.822;23.352;2024-02-21T13:41:46;21.52;;;10.70;;
86047;SDS011;76643;42.822;23.352;2024-02-21T13:44:11;24.58;;;11.15;;
86047;SDS011;76643;42.822;23.352;2024-02-21T13:46:37;18.88;;;9.30;;
86047;SDS011;76643;42.822;23.352;2024-02-21T13:49:04;23.33;;;10.27;;
86047;SDS011;76643;42.822;23.352;2024-02-21T13:51:35;14.75;;;8.65;;
86047;SDS011;76643;42.822;23.352;2024-02-21T13:54:02;11.20;;;6.70;;
86047;SDS011;76643;42.822;23.352;2024-02-21T13:56:30;11.07;;;8.07;;
86047;SDS011;76643;42.822;23.352;2024-02-21T13:58:57;12.77;;;7.07;;
86047;SDS011;76643;42.822;23.352;2024-02-21T14:01:25;11.98;;;7.18;;
86047;SDS011;76643;42.822;23.352;2024-02-21T14:03:50;11.00;;;6.53;;
86047;SDS011;76643;42.822;23.352;2024-02-21T14:06:15;10.48;;;7.10;;
86047;SDS011;76643;42.822;23.352;2024-02-21T14:08:42;11.68;;;6.20;;
86047;SDS011;76643;42.822;23.352;2024-02-21T14:11:07;11.77;;;7.60;;
86047;SDS011;76643;42.822;23.352;2024-02-21T14:13:33;12.07;;;8.13;;
86047;SDS011;76643;42.822;23.352;2024-02-21T14:15:58;12.48;;;6.53;;
86047;SDS011;76643;42.822;23.352;2024-02-21T14:18:23;12.07;;;6.75;;